Chesley, Canada
Current Conditions -  °F | °C
As of 12:00 PM on Friday 28 Nov 2014 (Local Time) from CYVV Reporting Station
Light Snow Light Snow  
Wind Chill: 19°   Ceiling: 3000
Heat Index: 19°   Visibility: 10mi
Dew Point: 10°   Wind: 0mph
Humidity: 68%   Direction: NA
Pressure: 30.2"   Gusts: NA
Location:  44.3°N, 81.1°W
Report Text: CYVV 281700Z 00000KT 10SM -SN BKN030 OVC090 M07/M12 A3020 RMK SC6AC2 SLP240
Loading
Personal Weather Stations






























Interactive Weather Map New forecast layout! Learn more

10-Day Weather Forecast

Advertisements
Track Severe Weather on mobile